createdAt,value
2019-01-18T00:00:50.699Z,4.60
2019-01-18T00:02:54.354Z,4.90
2019-01-18T00:04:58.035Z,4.40
2019-01-18T00:07:01.691Z,3.90
2019-01-18T00:09:07.152Z,3.70
2019-01-18T00:11:10.844Z,4.00
2019-01-18T00:13:14.502Z,3.90
2019-01-18T00:15:18.322Z,3.90
2019-01-18T00:17:21.986Z,3.80
2019-01-18T00:19:25.741Z,4.40
2019-01-18T00:21:29.428Z,4.30
2019-01-18T00:23:33.107Z,3.90
2019-01-18T00:25:36.766Z,3.60
2019-01-18T00:27:40.474Z,3.50
2019-01-18T00:29:44.168Z,3.80
2019-01-18T00:31:47.813Z,3.00
2019-01-18T00:33:51.467Z,3.50
2019-01-18T00:35:55.345Z,3.60
2019-01-18T00:37:59.083Z,4.30
2019-01-18T00:40:02.740Z,4.10
2019-01-18T00:42:06.500Z,4.40
2019-01-18T00:44:10.172Z,4.80
2019-01-18T00:46:13.858Z,4.80
2019-01-18T00:48:17.514Z,4.30
2019-01-18T00:50:21.571Z,4.00
2019-01-18T00:52:25.919Z,4.40
2019-01-18T00:54:29.583Z,4.10
2019-01-18T00:56:33.297Z,4.00
2019-01-18T00:58:36.964Z,4.10
2019-01-18T01:00:40.637Z,4.00
2019-01-18T01:02:44.317Z,4.50
2019-01-18T01:04:47.982Z,4.50
2019-01-18T01:06:51.673Z,4.70
2019-01-18T01:08:55.646Z,5.00
2019-01-18T01:10:59.401Z,4.80
2019-01-18T01:13:03.091Z,4.90
2019-01-18T01:15:10.597Z,5.10
2019-01-18T01:17:14.341Z,5.30
2019-01-18T01:19:18.006Z,4.90
2019-01-18T01:21:21.655Z,4.70
2019-01-18T01:23:25.368Z,4.70
2019-01-18T01:25:29.035Z,5.00
2019-01-18T01:27:32.725Z,4.80
2019-01-18T01:29:42.856Z,4.80
2019-01-18T01:31:41.786Z,5.00
2019-01-18T01:33:45.565Z,4.90
2019-01-18T01:35:49.238Z,5.10
2019-01-18T01:37:52.921Z,4.90
2019-01-18T01:39:56.571Z,4.70
2019-01-18T01:42:00.234Z,5.20
2019-01-18T01:44:03.914Z,5.10
2019-01-18T01:46:07.579Z,5.40
2019-01-18T01:48:11.257Z,5.70
2019-01-18T01:50:20.175Z,6.00
2019-01-18T01:52:23.855Z,5.80
2019-01-18T01:54:27.531Z,5.70
2019-01-18T01:56:31.190Z,5.60
2019-01-18T01:58:34.870Z,5.10
2019-01-18T02:00:38.539Z,5.20
2019-01-18T02:02:42.193Z,5.40
2019-01-18T02:04:45.892Z,5.80
2019-01-18T02:06:49.557Z,5.60
2019-01-18T02:08:53.216Z,5.70
2019-01-18T02:10:56.903Z,5.50
2019-01-18T02:13:00.566Z,5.80
2019-01-18T02:15:06.626Z,5.70
2019-01-18T02:17:10.283Z,5.20
2019-01-18T02:19:13.974Z,5.20
2019-01-18T02:21:17.662Z,5.70
2019-01-18T02:23:21.474Z,5.70
2019-01-18T02:25:25.165Z,5.70
2019-01-18T02:27:28.826Z,4.90
2019-01-18T02:29:32.568Z,4.10
2019-01-18T02:31:36.281Z,4.20
2019-01-18T02:33:39.904Z,4.80
2019-01-18T02:35:43.584Z,4.60
2019-01-18T02:37:47.237Z,4.50
2019-01-18T02:39:50.972Z,4.10
2019-01-18T02:41:54.874Z,3.40
2019-01-18T02:43:58.527Z,3.30
2019-01-18T02:46:02.222Z,3.60
2019-01-18T02:48:05.876Z,4.10
2019-01-18T02:50:11.440Z,4.10
2019-01-18T02:52:15.122Z,3.50
2019-01-18T02:54:18.787Z,3.80
2019-01-18T02:56:22.538Z,3.40
2019-01-18T02:58:26.194Z,3.40
2019-01-18T03:00:29.851Z,3.50
2019-01-18T03:02:33.534Z,3.70
2019-01-18T03:04:37.227Z,3.90
2019-01-18T03:06:40.914Z,3.60
2019-01-18T03:08:44.580Z,4.10
2019-01-18T03:10:48.242Z,3.80
2019-01-18T03:12:51.932Z,3.00
2019-01-18T03:14:55.686Z,3.20
2019-01-18T03:16:59.460Z,3.30
2019-01-18T03:19:03.114Z,3.50
2019-01-18T03:21:06.830Z,2.80
2019-01-18T03:23:10.578Z,3.40
2019-01-18T03:25:17.115Z,4.10
2019-01-18T03:27:20.807Z,4.90
2019-01-18T03:29:24.509Z,4.50
2019-01-18T03:31:31.056Z,3.50
2019-01-18T03:33:34.744Z,3.60
2019-01-18T03:35:38.403Z,3.70
2019-01-18T03:37:42.143Z,3.00
2019-01-18T03:39:45.839Z,2.70
2019-01-18T03:41:49.493Z,3.10
2019-01-18T03:43:56.506Z,3.00
2019-01-18T03:46:00.164Z,2.50
2019-01-18T03:48:03.879Z,2.60
2019-01-18T03:50:10.815Z,2.60
2019-01-18T03:52:14.476Z,2.50
2019-01-18T03:54:18.158Z,2.10
2019-01-18T03:56:21.816Z,2.00
2019-01-18T03:58:25.638Z,2.60
2019-01-18T04:00:29.723Z,2.30
2019-01-18T04:02:33.391Z,2.60
2019-01-18T04:04:37.202Z,2.20
2019-01-18T04:06:40.878Z,2.70
2019-01-18T04:08:44.535Z,3.00
2019-01-18T04:10:48.218Z,2.90
2019-01-18T04:12:51.973Z,2.60
2019-01-18T04:14:55.652Z,2.80
2019-01-18T04:16:59.332Z,3.20
2019-01-18T04:19:02.995Z,3.40
2019-01-18T04:21:06.677Z,3.40
2019-01-18T04:23:10.326Z,3.20
2019-01-18T04:25:15.884Z,3.10
2019-01-18T04:27:19.546Z,3.00
2019-01-18T04:29:23.210Z,3.20
2019-01-18T04:31:26.874Z,3.40
2019-01-18T04:33:30.557Z,2.60
2019-01-18T04:35:34.237Z,3.10
2019-01-18T04:37:37.892Z,1.70
2019-01-18T04:39:41.550Z,2.10
2019-01-18T04:41:45.243Z,2.70
2019-01-18T04:43:48.896Z,2.80
2019-01-18T04:45:52.587Z,2.50
2019-01-18T04:47:56.259Z,3.00
2019-01-18T04:49:59.930Z,2.90
2019-01-18T04:52:03.614Z,2.70
2019-01-18T04:54:07.395Z,2.70
2019-01-18T04:56:11.233Z,3.40
2019-01-18T04:58:14.893Z,2.50
2019-01-18T05:00:21.058Z,2.70
2019-01-18T05:02:24.729Z,2.40
2019-01-18T05:04:28.387Z,2.20
2019-01-18T05:06:32.158Z,2.30
2019-01-18T05:08:35.813Z,2.80
2019-01-18T05:10:39.464Z,3.20
2019-01-18T05:12:43.160Z,2.40
2019-01-18T05:14:46.810Z,2.90
2019-01-18T05:16:50.497Z,3.20
2019-01-18T05:18:54.151Z,2.60
2019-01-18T05:20:57.835Z,2.90
2019-01-18T05:23:01.524Z,3.10
2019-01-18T05:25:07.291Z,3.00
2019-01-18T05:27:10.978Z,3.40
2019-01-18T05:29:14.641Z,3.20
2019-01-18T05:31:18.330Z,2.70
2019-01-18T05:33:22.019Z,3.20
2019-01-18T05:35:25.680Z,3.00
2019-01-18T05:37:29.387Z,2.40
2019-01-18T05:39:33.108Z,2.20
2019-01-18T05:41:36.821Z,2.40
2019-01-18T05:43:40.602Z,3.10
2019-01-18T05:45:44.254Z,3.30
2019-01-18T05:47:47.947Z,2.70
2019-01-18T05:49:51.616Z,3.20
2019-01-18T05:51:55.307Z,3.00
2019-01-18T05:53:58.993Z,2.70
2019-01-18T05:56:02.650Z,2.70
2019-01-18T05:58:06.336Z,3.30
2019-01-18T06:00:31.703Z,3.60
2019-01-18T06:02:35.360Z,2.90
2019-01-18T06:04:39.064Z,3.20
2019-01-18T06:06:42.715Z,4.20
2019-01-18T06:08:46.447Z,4.60
2019-01-18T06:10:50.113Z,5.20
2019-01-18T06:12:53.766Z,5.50
2019-01-18T06:14:57.451Z,5.40
2019-01-18T06:17:01.116Z,5.50
2019-01-18T06:19:04.799Z,5.80
2019-01-18T06:21:08.464Z,6.10
2019-01-18T06:23:12.122Z,6.10
2019-01-18T06:25:16.413Z,6.20
2019-01-18T06:27:20.078Z,6.20
2019-01-18T06:29:23.750Z,6.30
2019-01-18T06:31:27.411Z,6.40
2019-01-18T06:33:31.072Z,6.20
2019-01-18T06:35:34.915Z,6.40
2019-01-18T06:37:38.637Z,6.40
2019-01-18T06:39:42.405Z,6.30
2019-01-18T06:41:46.460Z,6.30
2019-01-18T06:43:50.179Z,6.30
2019-01-18T06:45:53.890Z,6.30
2019-01-18T06:47:57.648Z,6.30
2019-01-18T06:50:01.331Z,5.90
2019-01-18T06:52:05.086Z,5.90
2019-01-18T06:54:08.739Z,5.90
2019-01-18T06:56:12.556Z,6.10
2019-01-18T06:58:16.336Z,6.20
2019-01-18T07:00:22.903Z,6.50
2019-01-18T07:02:26.579Z,6.60
2019-01-18T07:04:30.233Z,6.60
2019-01-18T07:06:33.915Z,6.80
2019-01-18T07:08:37.575Z,6.60
2019-01-18T07:10:41.331Z,6.70
2019-01-18T07:12:45.029Z,6.70
2019-01-18T07:14:48.676Z,6.70
2019-01-18T07:16:52.372Z,6.70
2019-01-18T07:18:56.033Z,6.50
2019-01-18T07:20:59.822Z,6.50
2019-01-18T07:23:03.518Z,6.60
2019-01-18T07:25:10.114Z,6.70
2019-01-18T07:27:13.808Z,6.70
2019-01-18T07:29:17.450Z,6.40
2019-01-18T07:31:21.146Z,6.60
2019-01-18T07:33:24.803Z,6.70
2019-01-18T07:35:28.495Z,6.60
2019-01-18T07:37:32.182Z,6.40
2019-01-18T07:39:35.844Z,6.30
2019-01-18T07:41:39.530Z,6.20
2019-01-18T07:43:43.201Z,5.90
2019-01-18T07:45:46.926Z,6.00
2019-01-18T07:47:50.598Z,5.90
2019-01-18T07:49:54.264Z,5.60
2019-01-18T07:51:57.941Z,5.80
2019-01-18T07:54:01.613Z,6.10
2019-01-18T07:56:05.316Z,6.30
2019-01-18T07:58:09.006Z,6.30
2019-01-18T08:00:29.746Z,6.40
2019-01-18T08:02:33.411Z,6.30
2019-01-18T08:04:37.087Z,6.10
2019-01-18T08:06:40.746Z,6.20
2019-01-18T08:08:44.455Z,6.10
2019-01-18T08:10:48.114Z,6.10
2019-01-18T08:12:51.847Z,6.00
2019-01-18T08:14:55.502Z,6.00
2019-01-18T08:16:59.158Z,6.00
2019-01-18T08:19:02.839Z,6.10
2019-01-18T08:21:06.502Z,6.10
2019-01-18T08:23:10.200Z,6.40
2019-01-18T08:25:15.284Z,6.50
2019-01-18T08:27:18.951Z,6.70
2019-01-18T08:29:22.692Z,6.60
2019-01-18T08:31:29.029Z,6.50
2019-01-18T08:33:31.776Z,6.40
2019-01-18T08:35:35.438Z,6.30
2019-01-18T08:37:39.134Z,6.60
2019-01-18T08:39:42.838Z,6.60
2019-01-18T08:41:46.524Z,6.90
2019-01-18T08:43:50.208Z,6.60
2019-01-18T08:45:53.869Z,6.50
2019-01-18T08:47:57.637Z,6.50
2019-01-18T08:50:01.395Z,6.70
2019-01-18T08:52:05.149Z,6.70
2019-01-18T08:54:08.834Z,7.00
2019-01-18T08:56:12.526Z,7.20
2019-01-18T08:58:16.180Z,7.40
2019-01-18T09:00:25.769Z,7.50
2019-01-18T09:02:29.421Z,7.70
2019-01-18T09:04:33.117Z,7.70
2019-01-18T09:06:36.778Z,7.60
2019-01-18T09:08:40.436Z,7.60
2019-01-18T09:10:44.104Z,7.50
2019-01-18T09:12:47.771Z,7.30
2019-01-18T09:14:51.475Z,7.60
2019-01-18T09:16:55.171Z,7.80
2019-01-18T09:18:58.830Z,8.00
2019-01-18T09:21:02.534Z,8.10
2019-01-18T09:23:06.217Z,8.10
2019-01-18T09:25:09.878Z,7.90
2019-01-18T09:27:13.558Z,7.80
2019-01-18T09:29:17.206Z,7.80
2019-01-18T09:31:20.891Z,7.90
2019-01-18T09:33:24.574Z,7.60
2019-01-18T09:35:28.360Z,7.80
2019-01-18T09:37:32.017Z,7.90
2019-01-18T09:39:35.675Z,7.80
2019-01-18T09:41:39.359Z,7.80
2019-01-18T09:43:43.028Z,8.00
2019-01-18T09:45:46.706Z,8.20
2019-01-18T09:47:50.377Z,8.40
2019-01-18T09:49:54.035Z,8.50
2019-01-18T09:51:57.758Z,8.50
2019-01-18T09:54:01.432Z,8.30
2019-01-18T09:56:05.119Z,8.20
2019-01-18T09:58:08.815Z,8.20
2019-01-18T10:00:21.536Z,8.00
2019-01-18T10:02:25.222Z,7.90
2019-01-18T10:04:28.897Z,7.40
2019-01-18T10:06:32.570Z,7.40
2019-01-18T10:08:36.259Z,7.10
2019-01-18T10:10:39.914Z,7.00
2019-01-18T10:12:43.875Z,7.20
2019-01-18T10:14:47.666Z,7.40
2019-01-18T10:16:51.369Z,7.60
2019-01-18T10:18:55.025Z,7.10
2019-01-18T10:20:58.690Z,7.00
2019-01-18T10:23:02.375Z,7.00
2019-01-18T10:25:09.307Z,6.80
2019-01-18T10:27:12.986Z,7.00
2019-01-18T10:29:16.659Z,6.90
2019-01-18T10:31:20.342Z,7.00
2019-01-18T10:33:24.046Z,7.10
2019-01-18T10:35:28.299Z,7.00
2019-01-18T10:37:32.068Z,7.00
2019-01-18T10:39:35.732Z,7.10
2019-01-18T10:41:39.396Z,7.30
2019-01-18T10:43:43.090Z,7.40
2019-01-18T10:45:46.753Z,7.60
2019-01-18T10:47:50.835Z,7.40
2019-01-18T10:49:54.508Z,7.50
2019-01-18T10:51:58.183Z,7.60
2019-01-18T10:54:01.883Z,7.80
2019-01-18T10:56:05.550Z,7.80
2019-01-18T10:58:12.918Z,7.80
2019-01-18T11:00:21.964Z,7.70
2019-01-18T11:02:25.628Z,7.80
2019-01-18T11:04:29.343Z,7.90
2019-01-18T11:06:32.995Z,7.90
2019-01-18T11:08:36.691Z,8.00
2019-01-18T11:10:40.356Z,8.00
2019-01-18T11:12:44.123Z,8.00
2019-01-18T11:14:47.807Z,8.00
2019-01-18T11:16:51.465Z,7.60
2019-01-18T11:18:55.289Z,7.80
2019-01-18T11:20:59.017Z,7.90
2019-01-18T11:23:02.703Z,8.00
2019-01-18T11:25:08.987Z,7.90
2019-01-18T11:27:12.676Z,7.90
2019-01-18T11:29:16.423Z,8.20
2019-01-18T11:31:23.398Z,8.30
2019-01-18T11:33:25.477Z,8.10
2019-01-18T11:35:29.259Z,7.80
2019-01-18T11:37:32.929Z,7.80
2019-01-18T11:39:36.623Z,7.80
2019-01-18T11:41:40.289Z,7.90
2019-01-18T11:43:43.953Z,7.40
2019-01-18T11:45:47.667Z,7.20
2019-01-18T11:47:51.314Z,7.40
2019-01-18T11:49:55.139Z,7.50
2019-01-18T11:51:58.809Z,7.30
2019-01-18T11:54:02.608Z,7.70
2019-01-18T11:56:06.313Z,7.50
2019-01-18T11:58:09.990Z,7.80
2019-01-18T12:00:25.804Z,8.20
2019-01-18T12:02:29.482Z,8.10
2019-01-18T12:04:33.157Z,7.50
2019-01-18T12:06:36.839Z,7.50
2019-01-18T12:08:41.951Z,7.30
2019-01-18T12:10:45.883Z,7.10
2019-01-18T12:12:49.548Z,7.30
2019-01-18T12:14:53.222Z,7.60
2019-01-18T12:16:56.968Z,7.20
2019-01-18T12:19:00.645Z,7.10
2019-01-18T12:21:04.344Z,7.00
2019-01-18T12:23:08.015Z,7.20
2019-01-18T12:25:11.912Z,7.40
2019-01-18T12:27:15.611Z,7.70
2019-01-18T12:29:19.262Z,7.80
2019-01-18T12:31:22.983Z,8.10
2019-01-18T12:33:26.655Z,8.30
2019-01-18T12:35:30.343Z,8.60
2019-01-18T12:37:34.045Z,8.70
2019-01-18T12:39:37.716Z,8.50
2019-01-18T12:41:41.515Z,8.50
2019-01-18T12:43:45.187Z,8.40
2019-01-18T12:45:48.855Z,8.20
2019-01-18T12:47:52.562Z,7.70
2019-01-18T12:49:56.227Z,7.90
2019-01-18T12:51:59.915Z,8.00
2019-01-18T12:54:03.739Z,8.00
2019-01-18T12:56:07.459Z,8.00
2019-01-18T12:58:11.172Z,7.90
2019-01-18T13:00:18.091Z,7.80
2019-01-18T13:02:21.771Z,7.70
2019-01-18T13:04:25.506Z,8.00
2019-01-18T13:06:29.166Z,8.10
2019-01-18T13:08:32.857Z,7.80
2019-01-18T13:10:36.520Z,7.90
2019-01-18T13:12:40.245Z,8.00
2019-01-18T13:14:43.890Z,8.10
2019-01-18T13:16:47.569Z,8.30
2019-01-18T13:18:51.253Z,8.10
2019-01-18T13:20:54.912Z,7.90
2019-01-18T13:22:58.643Z,8.10
2019-01-18T13:25:02.323Z,8.10
2019-01-18T13:27:05.993Z,8.20
2019-01-18T13:29:09.698Z,8.20
2019-01-18T13:31:13.410Z,8.20
2019-01-18T13:33:17.167Z,8.30
2019-01-18T13:35:20.934Z,8.50
2019-01-18T13:37:24.634Z,8.30
2019-01-18T13:39:28.328Z,8.30
2019-01-18T13:41:32.019Z,8.40
2019-01-18T13:43:35.698Z,8.50
2019-01-18T13:45:39.371Z,8.50
2019-01-18T13:47:44.431Z,8.40
2019-01-18T13:49:48.124Z,8.50
2019-01-18T13:51:51.793Z,8.60
2019-01-18T13:53:55.557Z,8.60
2019-01-18T13:55:59.252Z,8.70
2019-01-18T13:58:02.923Z,8.50
2019-01-18T14:00:09.675Z,8.30
2019-01-18T14:02:13.355Z,8.10
2019-01-18T14:04:17.051Z,8.20
2019-01-18T14:06:20.817Z,8.20
2019-01-18T14:08:24.491Z,8.10
2019-01-18T14:10:30.077Z,8.30
2019-01-18T14:12:33.849Z,8.40
2019-01-18T14:14:37.650Z,8.30
2019-01-18T14:16:41.328Z,8.30
2019-01-18T14:18:45.032Z,8.40
2019-01-18T14:20:48.785Z,8.40
2019-01-18T14:22:52.861Z,8.50
2019-01-18T14:24:56.580Z,8.50
2019-01-18T14:27:00.256Z,8.20
2019-01-18T14:29:03.934Z,8.30
2019-01-18T14:31:07.709Z,8.00
2019-01-18T14:33:11.414Z,8.30
2019-01-18T14:35:15.121Z,8.40
2019-01-18T14:37:18.794Z,8.40
2019-01-18T14:39:22.472Z,8.20
2019-01-18T14:41:26.168Z,7.90
2019-01-18T14:43:29.852Z,7.90
2019-01-18T14:45:39.439Z,8.10
2019-01-18T14:47:43.126Z,8.20
2019-01-18T14:49:46.829Z,8.20
2019-01-18T14:51:50.507Z,8.10
2019-01-18T14:53:54.181Z,7.60
2019-01-18T14:55:57.948Z,7.90
2019-01-18T14:58:01.710Z,7.80
2019-01-18T15:00:14.843Z,7.70
2019-01-18T15:02:18.535Z,7.70
2019-01-18T15:04:23.011Z,7.60
2019-01-18T15:06:26.775Z,7.90
2019-01-18T15:08:30.443Z,8.00
2019-01-18T15:10:34.134Z,8.20
2019-01-18T15:12:37.839Z,8.50
2019-01-18T15:14:41.522Z,8.60
2019-01-18T15:16:45.215Z,8.70
2019-01-18T15:18:48.896Z,8.80
2019-01-18T15:20:52.552Z,8.70
2019-01-18T15:22:56.449Z,8.80
2019-01-18T15:25:00.226Z,8.70
2019-01-18T15:27:05.698Z,8.70
2019-01-18T15:29:09.434Z,8.40
2019-01-18T15:31:13.115Z,7.40
2019-01-18T15:33:16.842Z,7.10
2019-01-18T15:35:23.016Z,6.90
2019-01-18T15:37:26.719Z,7.30
2019-01-18T15:39:30.436Z,7.70
2019-01-18T15:41:34.175Z,7.90
2019-01-18T15:43:37.918Z,8.10
2019-01-18T15:45:41.578Z,8.20
2019-01-18T15:47:45.286Z,8.30
2019-01-18T15:49:49.005Z,8.30
2019-01-18T15:51:52.687Z,8.30
2019-01-18T15:53:56.415Z,8.30
2019-01-18T15:56:00.102Z,8.20
2019-01-18T15:58:03.874Z,8.20
2019-01-18T16:00:31.102Z,8.20
2019-01-18T16:02:34.764Z,8.10
2019-01-18T16:04:41.134Z,7.80
2019-01-18T16:06:44.844Z,7.80
2019-01-18T16:08:48.542Z,7.80
2019-01-18T16:10:52.232Z,7.80
2019-01-18T16:12:55.902Z,7.70
2019-01-18T16:14:59.627Z,7.80
2019-01-18T16:17:04.672Z,7.80
2019-01-18T16:19:08.430Z,7.80
2019-01-18T16:21:12.114Z,7.80
2019-01-18T16:23:15.760Z,7.80
2019-01-18T16:25:25.110Z,7.80
2019-01-18T16:27:28.792Z,7.70
2019-01-18T16:29:32.504Z,7.70
2019-01-18T16:31:36.237Z,7.80
2019-01-18T16:33:39.904Z,7.80
2019-01-18T16:35:43.721Z,7.80
2019-01-18T16:37:48.002Z,7.80
2019-01-18T16:39:51.679Z,7.90
2019-01-18T16:41:55.411Z,7.80
2019-01-18T16:43:59.136Z,7.80
2019-01-18T16:46:02.815Z,7.70
2019-01-18T16:48:06.531Z,7.70
2019-01-18T16:50:13.060Z,7.60
2019-01-18T16:52:16.856Z,7.40
2019-01-18T16:54:20.588Z,7.30
2019-01-18T16:56:24.394Z,7.30
2019-01-18T16:58:28.104Z,7.40
2019-01-18T17:00:40.622Z,7.40
2019-01-18T17:02:44.326Z,7.50
2019-01-18T17:04:48.008Z,7.40
2019-01-18T17:06:51.698Z,7.40
2019-01-18T17:08:55.378Z,7.40
2019-01-18T17:10:59.097Z,7.40
2019-01-18T17:13:02.826Z,7.40
2019-01-18T17:15:09.819Z,7.40
2019-01-18T17:17:13.525Z,7.30
2019-01-18T17:19:17.192Z,7.20
2019-01-18T17:21:21.238Z,7.10
2019-01-18T17:23:24.911Z,7.00
2019-01-18T17:25:28.683Z,6.80
2019-01-18T17:27:32.390Z,6.70
2019-01-18T17:29:36.063Z,6.60
2019-01-18T17:31:39.754Z,6.60
2019-01-18T17:33:43.458Z,6.70
2019-01-18T17:35:57.667Z,6.80
2019-01-18T17:38:04.299Z,6.90
2019-01-18T17:40:10.903Z,6.80
2019-01-18T17:42:20.094Z,6.70
2019-01-18T17:44:46.570Z,6.50
2019-01-18T17:47:02.090Z,6.50
2019-01-18T17:49:20.914Z,6.40
2019-01-18T17:51:49.402Z,6.20
2019-01-18T17:54:11.028Z,6.00
2019-01-18T17:56:23.153Z,5.70
2019-01-18T17:58:54.214Z,5.30
2019-01-18T18:01:35.563Z,5.40
2019-01-18T18:03:48.129Z,5.40
2019-01-18T18:06:03.340Z,5.30
2019-01-18T18:08:16.161Z,5.20
2019-01-18T18:10:38.965Z,5.20
2019-01-18T18:13:03.658Z,5.40
2019-01-18T18:15:40.962Z,5.60
2019-01-18T18:17:50.478Z,5.70
2019-01-18T18:20:12.394Z,5.70
2019-01-18T18:22:48.174Z,5.50
2019-01-18T18:25:00.563Z,5.50
2019-01-18T18:27:13.008Z,5.40
2019-01-18T18:29:22.370Z,5.50
2019-01-18T18:31:43.595Z,5.40
2019-01-18T18:34:06.520Z,5.30
2019-01-18T18:36:24.943Z,5.40
2019-01-18T18:38:34.394Z,5.40
2019-01-18T18:40:52.744Z,5.10
2019-01-18T18:43:21.607Z,5.10
2019-01-18T18:45:52.247Z,5.10
2019-01-18T18:48:18.312Z,4.80
2019-01-18T18:50:24.947Z,4.60
2019-01-18T18:52:37.083Z,4.80
2019-01-18T18:55:07.018Z,4.90
2019-01-18T18:57:19.002Z,4.80
2019-01-18T18:59:43.271Z,4.80
2019-01-18T19:01:56.239Z,4.90
2019-01-18T19:04:12.078Z,5.20
2019-01-18T19:06:30.326Z,5.10
2019-01-18T19:08:36.928Z,5.10
2019-01-18T19:10:52.138Z,5.20
2019-01-18T19:13:01.681Z,5.00
2019-01-18T19:15:30.737Z,5.20
2019-01-18T19:17:52.447Z,5.30
2019-01-18T19:20:27.800Z,5.40
2019-01-18T19:22:46.625Z,5.40
2019-01-18T19:25:04.837Z,5.20
2019-01-18T19:27:20.307Z,5.00
2019-01-18T19:29:38.666Z,5.00
2019-01-18T19:31:51.514Z,5.00
2019-01-18T19:34:06.960Z,4.90
2019-01-18T19:36:25.304Z,4.80
2019-01-18T19:38:52.351Z,4.80
2019-01-18T19:41:18.569Z,4.70
2019-01-18T19:43:58.106Z,4.70
2019-01-18T19:46:10.656Z,4.50
2019-01-18T19:48:23.190Z,4.60
2019-01-18T19:50:35.466Z,4.70
2019-01-18T19:52:50.394Z,4.70
2019-01-18T19:55:20.583Z,4.90
2019-01-18T19:57:41.418Z,5.00
2019-01-18T19:59:59.934Z,4.80
2019-01-18T20:02:27.726Z,4.90
2019-01-18T20:04:40.195Z,4.90
2019-01-18T20:07:01.675Z,4.60
2019-01-18T20:09:28.534Z,4.60
2019-01-18T20:11:40.845Z,4.50
2019-01-18T20:13:59.574Z,4.50
2019-01-18T20:16:14.727Z,4.60
2019-01-18T20:18:23.806Z,4.60
2019-01-18T20:20:48.302Z,4.70
2019-01-18T20:23:11.412Z,4.60
2019-01-18T20:25:18.049Z,4.60
2019-01-18T20:27:30.138Z,4.40
2019-01-18T20:29:54.499Z,4.50
2019-01-18T20:32:03.649Z,4.60
2019-01-18T20:34:26.504Z,4.60
2019-01-18T20:36:36.121Z,4.70
2019-01-18T20:39:01.180Z,4.50
2019-01-18T20:41:07.867Z,4.40
2019-01-18T20:43:32.921Z,4.50
2019-01-18T20:45:57.588Z,4.50
2019-01-18T20:48:33.911Z,4.40
2019-01-18T20:50:52.459Z,4.30
2019-01-18T20:53:20.118Z,4.10
2019-01-18T20:55:54.012Z,4.20
2019-01-18T20:58:16.927Z,4.30
2019-01-18T21:00:41.660Z,4.10
2019-01-18T21:03:05.471Z,4.10
2019-01-18T21:05:24.134Z,3.90
2019-01-18T21:07:49.254Z,3.90
2019-01-18T21:10:02.362Z,3.80
2019-01-18T21:12:18.267Z,3.90
2019-01-18T21:14:27.963Z,4.00
2019-01-18T21:16:34.764Z,3.70
2019-01-18T21:19:08.886Z,3.80
2019-01-18T21:21:17.999Z,4.00
2019-01-18T21:23:39.160Z,3.80
2019-01-18T21:25:51.391Z,3.40
2019-01-18T21:28:31.459Z,3.30
2019-01-18T21:30:40.649Z,3.40
2019-01-18T21:32:49.834Z,3.50
2019-01-18T21:34:59.580Z,3.80
2019-01-18T21:37:12.103Z,4.00
2019-01-18T21:39:43.243Z,4.00
2019-01-18T21:41:52.655Z,4.10
2019-01-18T21:44:11.371Z,3.80
2019-01-18T21:46:23.279Z,3.80
2019-01-18T21:49:00.448Z,3.70
2019-01-18T21:51:22.250Z,3.60
2019-01-18T21:53:34.913Z,3.40
2019-01-18T21:55:47.272Z,3.60
2019-01-18T21:58:05.835Z,3.80
2019-01-18T22:00:18.179Z,3.70
2019-01-18T22:02:36.865Z,3.60
2019-01-18T22:04:58.575Z,3.60
2019-01-18T22:07:05.171Z,3.60
2019-01-18T22:09:20.810Z,3.60
2019-01-18T22:11:56.343Z,3.70
2019-01-18T22:14:15.030Z,3.70
2019-01-18T22:16:55.299Z,3.50
2019-01-18T22:19:18.564Z,3.40
2019-01-18T22:21:27.855Z,3.50
2019-01-18T22:23:34.465Z,3.50
2019-01-18T22:26:03.778Z,3.60
2019-01-18T22:28:22.541Z,3.70
2019-01-18T22:30:56.103Z,3.60
2019-01-18T22:33:05.855Z,3.60
2019-01-18T22:35:27.566Z,3.50
2019-01-18T22:37:46.111Z,3.40
2019-01-18T22:39:58.659Z,3.40
2019-01-18T22:42:05.298Z,3.40
2019-01-18T22:44:27.129Z,3.50
2019-01-18T22:46:50.613Z,3.60
2019-01-18T22:49:05.866Z,3.50
2019-01-18T22:51:15.431Z,3.50
2019-01-18T22:53:31.276Z,3.30
2019-01-18T22:55:55.520Z,3.20
2019-01-18T22:58:04.764Z,3.20
2019-01-18T23:00:34.122Z,3.20
2019-01-18T23:02:55.585Z,3.20
2019-01-18T23:05:10.980Z,2.70
2019-01-18T23:07:17.597Z,2.60
2019-01-18T23:09:49.685Z,2.70
2019-01-18T23:11:58.870Z,2.90
2019-01-18T23:14:27.368Z,2.90
2019-01-18T23:16:39.721Z,2.90
2019-01-18T23:18:58.307Z,3.10
2019-01-18T23:21:13.707Z,3.10
2019-01-18T23:23:35.170Z,3.30
2019-01-18T23:26:04.153Z,3.30
2019-01-18T23:28:28.694Z,3.20
2019-01-18T23:30:48.143Z,3.30
2019-01-18T23:33:09.911Z,3.20
2019-01-18T23:35:31.353Z,3.20
2019-01-18T23:38:00.716Z,3.20
2019-01-18T23:40:12.790Z,3.20
2019-01-18T23:42:28.179Z,3.10
2019-01-18T23:44:43.503Z,3.20
2019-01-18T23:47:06.922Z,3.30
2019-01-18T23:49:16.476Z,3.30
2019-01-18T23:51:41.409Z,3.20
2019-01-18T23:53:48.141Z,3.30
2019-01-18T23:56:00.144Z,3.30
2019-01-18T23:58:09.632Z,3.40
